sensor_id;sensor_type;location;lat;lon;timestamp;P1;durP1;ratioP1;P2;durP2;ratioP2
29254;SDS011;16277;48.890;2.306;2023-12-20T00:02:41;4.20;;;3.80;;
29254;SDS011;16277;48.890;2.306;2023-12-20T00:18:08;8.47;;;3.83;;
29254;SDS011;16277;48.890;2.306;2023-12-20T00:33:12;7.80;;;3.47;;
29254;SDS011;16277;48.890;2.306;2023-12-20T00:48:17;11.37;;;3.10;;
29254;SDS011;16277;48.890;2.306;2023-12-20T01:03:21;6.60;;;2.57;;
29254;SDS011;16277;48.890;2.306;2023-12-20T01:18:26;4.63;;;2.67;;
29254;SDS011;16277;48.890;2.306;2023-12-20T01:33:30;11.80;;;4.40;;
29254;SDS011;16277;48.890;2.306;2023-12-20T01:48:35;10.67;;;3.47;;
29254;SDS011;16277;48.890;2.306;2023-12-20T02:03:40;7.13;;;2.93;;
29254;SDS011;16277;48.890;2.306;2023-12-20T02:18:45;12.10;;;4.00;;
29254;SDS011;16277;48.890;2.306;2023-12-20T02:33:49;11.13;;;2.60;;
29254;SDS011;16277;48.890;2.306;2023-12-20T02:48:54;9.93;;;3.53;;
29254;SDS011;16277;48.890;2.306;2023-12-20T03:03:59;11.37;;;3.80;;
29254;SDS011;16277;48.890;2.306;2023-12-20T03:19:03;11.20;;;3.73;;
29254;SDS011;16277;48.890;2.306;2023-12-20T03:34:08;7.83;;;3.17;;
29254;SDS011;16277;48.890;2.306;2023-12-20T03:49:13;10.00;;;3.63;;
29254;SDS011;16277;48.890;2.306;2023-12-20T04:04:18;10.90;;;3.00;;
29254;SDS011;16277;48.890;2.306;2023-12-20T04:19:23;20.40;;;3.53;;
29254;SDS011;16277;48.890;2.306;2023-12-20T04:34:27;15.63;;;4.53;;
29254;SDS011;16277;48.890;2.306;2023-12-20T04:49:50;24.37;;;4.13;;
29254;SDS011;16277;48.890;2.306;2023-12-20T05:04:55;12.13;;;3.47;;
29254;SDS011;16277;48.890;2.306;2023-12-20T05:19:59;14.90;;;4.23;;
29254;SDS011;16277;48.890;2.306;2023-12-20T05:35:04;10.10;;;3.77;;
29254;SDS011;16277;48.890;2.306;2023-12-20T05:50:10;13.90;;;4.87;;
29254;SDS011;16277;48.890;2.306;2023-12-20T06:05:15;12.10;;;3.53;;
29254;SDS011;16277;48.890;2.306;2023-12-20T06:20:19;32.30;;;4.33;;
29254;SDS011;16277;48.890;2.306;2023-12-20T06:35:24;16.43;;;3.77;;
29254;SDS011;16277;48.890;2.306;2023-12-20T06:50:29;16.00;;;5.43;;
29254;SDS011;16277;48.890;2.306;2023-12-20T07:05:33;20.10;;;4.97;;
29254;SDS011;16277;48.890;2.306;2023-12-20T07:20:38;19.23;;;5.97;;
29254;SDS011;16277;48.890;2.306;2023-12-20T07:35:42;21.30;;;4.77;;
29254;SDS011;16277;48.890;2.306;2023-12-20T07:50:48;22.17;;;6.13;;
29254;SDS011;16277;48.890;2.306;2023-12-20T08:05:52;21.90;;;5.07;;
29254;SDS011;16277;48.890;2.306;2023-12-20T08:20:58;21.80;;;5.40;;
29254;SDS011;16277;48.890;2.306;2023-12-20T08:36:03;16.67;;;5.67;;
29254;SDS011;16277;48.890;2.306;2023-12-20T08:51:08;19.40;;;5.27;;
29254;SDS011;16277;48.890;2.306;2023-12-20T09:06:13;26.67;;;4.97;;
29254;SDS011;16277;48.890;2.306;2023-12-20T09:21:18;16.20;;;5.07;;
29254;SDS011;16277;48.890;2.306;2023-12-20T09:36:23;14.37;;;5.50;;
29254;SDS011;16277;48.890;2.306;2023-12-20T09:51:27;28.50;;;6.47;;
29254;SDS011;16277;48.890;2.306;2023-12-20T10:06:52;29.47;;;8.33;;
29254;SDS011;16277;48.890;2.306;2023-12-20T10:21:56;26.47;;;6.60;;
29254;SDS011;16277;48.890;2.306;2023-12-20T10:37:01;24.53;;;6.47;;
29254;SDS011;16277;48.890;2.306;2023-12-20T10:52:06;15.63;;;4.67;;
29254;SDS011;16277;48.890;2.306;2023-12-20T11:07:32;19.73;;;6.03;;
29254;SDS011;16277;48.890;2.306;2023-12-20T11:22:51;22.47;;;7.33;;
29254;SDS011;16277;48.890;2.306;2023-12-20T11:37:57;25.70;;;8.23;;
29254;SDS011;16277;48.890;2.306;2023-12-20T11:53:02;17.50;;;5.77;;
29254;SDS011;16277;48.890;2.306;2023-12-20T12:08:07;19.53;;;6.47;;
29254;SDS011;16277;48.890;2.306;2023-12-20T12:23:13;21.97;;;6.00;;
29254;SDS011;16277;48.890;2.306;2023-12-20T12:38:19;26.73;;;6.90;;
29254;SDS011;16277;48.890;2.306;2023-12-20T12:53:24;20.67;;;6.63;;
29254;SDS011;16277;48.890;2.306;2023-12-20T13:08:29;19.93;;;6.43;;
29254;SDS011;16277;48.890;2.306;2023-12-20T13:23:34;21.47;;;6.30;;
29254;SDS011;16277;48.890;2.306;2023-12-20T13:38:42;22.07;;;5.80;;
29254;SDS011;16277;48.890;2.306;2023-12-20T13:53:47;27.23;;;6.13;;
29254;SDS011;16277;48.890;2.306;2023-12-20T14:08:52;19.97;;;5.73;;
29254;SDS011;16277;48.890;2.306;2023-12-20T14:23:56;16.53;;;6.20;;
29254;SDS011;16277;48.890;2.306;2023-12-20T14:39:01;16.03;;;4.37;;
29254;SDS011;16277;48.890;2.306;2023-12-20T14:54:07;18.00;;;5.30;;
29254;SDS011;16277;48.890;2.306;2023-12-20T15:09:13;12.73;;;4.90;;
29254;SDS011;16277;48.890;2.306;2023-12-20T15:24:17;8.80;;;4.40;;
29254;SDS011;16277;48.890;2.306;2023-12-20T15:39:30;18.63;;;3.97;;
29254;SDS011;16277;48.890;2.306;2023-12-20T15:54:35;12.90;;;3.77;;
29254;SDS011;16277;48.890;2.306;2023-12-20T16:09:41;7.70;;;3.50;;
29254;SDS011;16277;48.890;2.306;2023-12-20T16:24:46;14.43;;;3.47;;
29254;SDS011;16277;48.890;2.306;2023-12-20T16:39:51;6.67;;;3.73;;
29254;SDS011;16277;48.890;2.306;2023-12-20T16:54:55;8.83;;;3.93;;
29254;SDS011;16277;48.890;2.306;2023-12-20T17:10:00;15.00;;;4.63;;
29254;SDS011;16277;48.890;2.306;2023-12-20T17:25:05;10.70;;;3.40;;
29254;SDS011;16277;48.890;2.306;2023-12-20T17:40:10;7.50;;;4.40;;
29254;SDS011;16277;48.890;2.306;2023-12-20T17:55:15;10.70;;;2.60;;
29254;SDS011;16277;48.890;2.306;2023-12-20T18:10:20;13.90;;;3.73;;
29254;SDS011;16277;48.890;2.306;2023-12-20T18:25:25;7.70;;;4.40;;
29254;SDS011;16277;48.890;2.306;2023-12-20T18:40:30;14.87;;;4.10;;
29254;SDS011;16277;48.890;2.306;2023-12-20T18:55:35;7.03;;;3.90;;
29254;SDS011;16277;48.890;2.306;2023-12-20T19:10:39;5.13;;;3.83;;
29254;SDS011;16277;48.890;2.306;2023-12-20T19:25:44;4.37;;;2.90;;
29254;SDS011;16277;48.890;2.306;2023-12-20T19:40:49;4.17;;;2.90;;
29254;SDS011;16277;48.890;2.306;2023-12-20T19:55:53;7.40;;;3.47;;
29254;SDS011;16277;48.890;2.306;2023-12-20T20:10:58;5.50;;;3.20;;
29254;SDS011;16277;48.890;2.306;2023-12-20T20:26:03;5.07;;;3.60;;
29254;SDS011;16277;48.890;2.306;2023-12-20T20:41:08;3.30;;;2.60;;
29254;SDS011;16277;48.890;2.306;2023-12-20T20:56:13;8.43;;;3.00;;
29254;SDS011;16277;48.890;2.306;2023-12-20T21:11:18;6.60;;;3.17;;
29254;SDS011;16277;48.890;2.306;2023-12-20T21:26:23;4.47;;;2.60;;
29254;SDS011;16277;48.890;2.306;2023-12-20T21:41:28;6.73;;;3.47;;
29254;SDS011;16277;48.890;2.306;2023-12-20T21:56:32;2.97;;;2.47;;
29254;SDS011;16277;48.890;2.306;2023-12-20T22:11:39;14.63;;;3.67;;
29254;SDS011;16277;48.890;2.306;2023-12-20T22:26:43;13.20;;;3.53;;
29254;SDS011;16277;48.890;2.306;2023-12-20T22:41:48;11.33;;;3.97;;
29254;SDS011;16277;48.890;2.306;2023-12-20T22:56:52;17.30;;;3.93;;
29254;SDS011;16277;48.890;2.306;2023-12-20T23:11:57;9.27;;;3.10;;
29254;SDS011;16277;48.890;2.306;2023-12-20T23:27:02;8.20;;;3.37;;
29254;SDS011;16277;48.890;2.306;2023-12-20T23:42:07;13.50;;;4.97;;
29254;SDS011;16277;48.890;2.306;2023-12-20T23:57:12;14.83;;;5.80;;
